Skip to main content
Hanford.Gov
Hanford Meteorological Station

Hanford Meteorological Station

Current and Past 96 Hour Observations
Date Time (PST) Ceiling (ft) Visibility (miles) Liquid Precip* Frozen Precip* Obstruction* Sea-Level Pressure (mbs) Dew Point Temp. (°F) Wind Direction (degrees) Wind Direction (from) Wind Speed (mph) Mixing Height (m) Station Pressure (inches Hg) Ambient Temp. (°F) Wet Bulb Temp. (°F) Rel. Hum. (%) Sky Cover (tenths) Rain (inches) Snow (melted inches) Snow (unmelted inches) Solar Radiation (Langleys / min.) WBGT** (°F)
06/06/2020 0500 9000 15 Light Rain 1003.1 41 290° WNW 9 1100 28.85 72 55 33 10 trace 0.00 0.0 0.28 0
06/06/2020 0400 9000 15 Light Rain 1003.1 41 290° WNW 9 1100 28.85 72 55 33 10 trace 0.00 0.0 0.28 0
06/06/2020 0300 9000 15 Light Rain 1003.1 41 290° WNW 9 1100 28.85 72 55 33 10 trace 0.00 0.0 0.28 0
06/06/2020 0200 9000 15 Light Rain 1003.1 41 290° WNW 9 1100 28.85 72 55 33 10 trace 0.00 0.0 0.28 0
06/06/2020 0100 9000 15 Light Rain 1003.1 41 290° WNW 9 1100 28.85 72 55 33 10 trace 0.00 0.0 0.28 0
06/05/2020 2400 9000 15 Light Rain 1003.1 41 290° WNW 9 1100 28.85 72 55 33 10 trace 0.00 0.0 0.28 0
06/05/2020 2300 9000 15 Light Rain 1003.1 41 290° WNW 9 1100 28.85 72 55 33 10 trace 0.00 0.0 0.28 0
06/05/2020 2200 9000 15 Light Rain 1003.1 41 290° WNW 9 1100 28.85 72 55 33 10 trace 0.00 0.0 0.28 0
06/05/2020 2100 9000 15 Light Rain 1003.1 41 290° WNW 9 1100 28.85 72 55 33 10 trace 0.00 0.0 0.28 0
06/05/2020 2000 9000 15 Light Rain 1003.1 41 290° WNW 9 1100 28.85 72 55 33 10 trace 0.00 0.0 0.28 0
06/05/2020 1900 9000 15 Light Rain 1003.1 41 290° WNW 9 1100 28.85 72 55 33 10 trace 0.00 0.0 0.28 0
06/05/2020 1800 9000 15 Light Rain 1003.1 41 290° WNW 9 1100 28.85 72 55 33 10 trace 0.00 0.0 0.28 0
06/05/2020 1700 9000 15 Light Rain 1003.1 41 290° WNW 9 1100 28.85 72 55 33 10 trace 0.00 0.0 0.28 0
06/05/2020 1600 9000 15 Light Rain 1003.1 41 290° WNW 9 1100 28.85 72 55 33 10 trace 0.00 0.0 0.28 0
06/05/2020 1500 9000 15 Light Rain 1003.1 41 290° WNW 9 1100 28.85 72 55 33 10 trace 0.00 0.0 0.28 0
06/05/2020 1400 10000 15 Light Rain 1002.9 41 300° WNW 9 1300 28.85 72 55 32 10 trace 0.00 0.0 0.27 0
06/05/2020 1300 12000 15 1002.9 40 310° NW 11 1500 28.85 73 55 30 10 0.00 0.00 0.0 0.64 0
06/05/2020 1200 12000 15 1003.8 39 290° WNW 8 1500 28.88 74 55 29 10 0.00 0.00 0.0 0.75 0
06/05/2020 1100 13000 15 1004.2 40 240° WSW 8 700 28.88 70 54 33 10 0.00 0.00 0.0 0.58 0
06/05/2020 1000 14000 15 1004.6 40 300° WNW 11 1300 28.90 70 54 34 10 0.00 0.00 0.0 0.53 0
06/05/2020 0900 14000 15 1004.8 39 300° WNW 12 1300 28.90 68 53 35 10 0.00 0.00 0.0 0.42 0
06/05/2020 0800 15000 15 1005.1 39 320° NW 11 1300 28.91 66 52 37 10 0.00 0.00 0.0 0.32 0
06/05/2020 0700 15000 15 1006.0 39 320° NW 12 1000 28.94 65 51 39 10 0.00 0.00 0.0 0.20 0
06/05/2020 0600 15000 15 1006.1 39 320° NW 14 900 28.94 63 51 41 10 0.00 0.00 0.0 0.11 0
06/05/2020 0500 NA 15 1006.2 40 320° NW 13 NA 28.94 62 50 43 NA 0.00 0.00 0.0 0.02 0
06/05/2020 0400 NA 15 Light Rain 1006.6 39 310° NW 12 NA 28.96 62 50 42 NA 0.00 0.00 0.0 0.00 0
06/05/2020 0300 NA 15 Light Rain 1007.4 39 310° NW 13 NA 28.98 63 50 41 NA trace 0.00 0.0 0.00 0
06/05/2020 0200 NA 15 1007.7 39 310° NW 12 NA 28.99 64 51 40 NA 0.00 0.00 0.0 0.00 0
06/05/2020 0100 NA 15 1007.9 39 310° NW 9 NA 29.00 64 51 40 NA 0.00 0.00 0.0 0.00 0
06/04/2020 2400 16000 15 1008.5 39 320° NW 12 500 29.01 65 52 38 10 0.00 0.00 0.0 0.00 0
06/04/2020 2300 16000 15 1008.9 39 310° NW 11 500 29.02 65 52 39 10 0.00 0.00 0.0 0.00 0
06/04/2020 2200 16000 15 1009.2 39 320° NW 13 700 29.03 66 52 37 10 0.00 0.00 0.0 0.00 0
06/04/2020 2100 22000 15 1009.4 39 310° NW 9 1000 29.04 68 53 33 10 0.00 0.00 0.0 0.00 0
06/04/2020 2000 UNL 15 1009.4 38 120° ESE 6 1200 29.03 71 54 30 10 0.00 0.00 0.0 0.02 0
06/04/2020 1900 UNL 15 1009.7 38 120° ESE 10 1500 29.04 75 56 26 9 0.00 0.00 0.0 0.13 0
06/04/2020 1800 UNL 15 1010.1 39 110° ESE 15 1500 29.06 76 56 26 5 0.00 0.00 0.0 0.33 0
06/04/2020 1700 UNL 15 1010.3 35 170° S 8 1500 29.06 80 57 19 8 0.00 0.00 0.0 0.71 0
06/04/2020 1600 UNL 15 1011.0 35 170° S 6 1500 29.08 80 56 19 6 0.00 0.00 0.0 0.74 0
06/04/2020 1500 UNL 15 1012.2 35 260° W 6 1500 29.12 80 56 19 6 0.00 0.00 0.0 1.08 0
06/04/2020 1400 UNL 15 1013.0 34 250° WSW 6 1300 29.14 78 55 20 7 0.00 0.00 0.0 1.22 0
06/04/2020 1300 UNL 15 1013.7 35 190° S 6 1300 29.16 77 54 21 4 0.00 0.00 0.0 1.31 0
06/04/2020 1200 UNL 15 1014.6 35 310° NW 11 1300 29.18 75 54 24 1 0.00 0.00 0.0 1.32 0
06/04/2020 1100 UNL 15 1014.7 35 330° NNW 13 1400 29.19 73 54 24 1 0.00 0.00 0.0 1.26 0
06/04/2020 1000 UNL 15 1014.9 35 320° NW 14 1300 29.19 71 53 26 0 0.00 0.00 0.0 1.13 0
06/04/2020 0900 UNL 15 1015.0 35 320° NW 14 1300 29.20 70 52 27 0 0.00 0.00 0.0 0.95 0
06/04/2020 0800 UNL 15 1014.9 35 310° NW 19 1300 29.20 67 51 30 1 0.00 0.00 0.0 0.72 0
06/04/2020 0700 UNL 15 1014.9 34 300° WNW 16 1300 29.19 64 50 31 1 0.00 0.00 0.0 0.48 0
06/04/2020 0600 UNL 15 1014.6 33 290° WNW 16 1000 29.19 63 49 32 0 0.00 0.00 0.0 0.24 0
06/04/2020 0500 NA 15 1014.3 33 300° WNW 13 NA 29.18 60 47 35 NA 0.00 0.00 0.0 0.05 0
06/04/2020 0400 NA 15 1014.0 33 270° W 12 NA 29.17 58 46 39 NA 0.00 0.00 0.0 0.00 0
06/04/2020 0300 NA 15 1013.4 33 280° W 18 NA 29.15 60 47 36 NA 0.00 0.00 0.0 0.00 0
06/04/2020 0200 NA 15 1012.7 34 280° W 15 NA 29.13 61 48 35 NA 0.00 0.00 0.0 0.00 0
06/04/2020 0100 NA 15 1012.5 35 300° WNW 25 NA 29.12 61 49 37 NA 0.00 0.00 0.0 0.00 0
06/03/2020 2400 UNL 15 1012.5 32 310° NW 25 1000 29.13 62 48 32 2 0.00 0.00 0.0 0.00 0
06/03/2020 2300 UNL 15 1012.5 31 310° NW 19 1000 29.12 63 48 30 5 0.00 0.00 0.0 0.00 0
06/03/2020 2200 15000 15 1012.3 32 310° NW 20 1000 29.12 65 49 28 10 0.00 0.00 0.0 0.00 0
06/03/2020 2100 17000 15 1011.7 34 310° NW 23 1000 29.10 68 51 28 10 0.00 0.00 0.0 0.00 0
06/03/2020 2000 16000 15 1011.5 34 240° WSW 8 1500 29.10 75 54 22 9 0.00 0.00 0.0 0.03 0
06/03/2020 1900 16000 15 1011.1 37 130° SE 6 1500 29.09 77 56 23 8 0.00 0.00 0.0 0.09 63.5
06/03/2020 1800 UNL 15 1011.5 36 120° ESE 10 1500 29.09 81 57 20 5 0.00 0.00 0.0 0.41 69.1
06/03/2020 1700 UNL 15 1011.8 38 120° ESE 10 1500 29.10 82 58 20 3 0.00 0.00 0.0 0.72 71.1
06/03/2020 1600 UNL 15 1012.9 36 170° S 9 1500 29.14 82 57 18 3 0.00 0.00 0.0 0.88 73.4
06/03/2020 1500 UNL 15 1013.9 33 140° SE 6 1500 29.16 80 56 18 8 0.00 0.00 0.0 0.93 71.6
06/03/2020 1400 25000 15 1015.0 32 140° SE 5 1300 29.20 78 55 19 10 0.00 0.00 0.0 0.94 71.2
06/03/2020 1300 25000 15 1015.8 32 250° WSW 6 1400 29.22 78 55 19 10 0.00 0.00 0.0 1.18 75
06/03/2020 1200 25000 15 1017.1 34 180° S 6 1300 29.26 76 55 21 10 0.00 0.00 0.0 1.32 71.8
06/03/2020 1100 25000 15 1017.6 35 270° W 6 1300 29.27 74 54 24 10 0.00 0.00 0.0 1.25 69.8
06/03/2020 1000 UNL 15 1018.6 33 280° W 5 1200 29.30 71 52 25 10 0.00 0.00 0.0 1.14 69.4
06/03/2020 0900 UNL 15 1019.1 32 180° S 4 1200 29.31 68 51 26 9 0.00 0.00 0.0 0.95 67.6
06/03/2020 0800 UNL 15 1019.5 37 330° NNW 7 1000 29.32 66 51 33 1 0.00 0.00 0.0 0.73 63.3
06/03/2020 0700 UNL 15 1019.7 38 310° NW 10 900 29.33 63 51 40 0 0.00 0.00 0.0 0.48 59.5
06/03/2020 0600 UNL 15 1019.7 38 280° W 6 600 29.33 59 49 46 1 0.00 0.00 0.0 0.24 0
06/03/2020 0500 UNL 15 1019.7 38 310° NW 6 400 29.33 54 47 55 2 0.00 0.00 0.0 0.05 0
06/03/2020 0400 NA 15 1019.5 39 340° NNW 6 NA 29.33 57 48 50 NA 0.00 0.00 0.0 0.00 0
06/03/2020 0300 NA 15 1019.0 39 340° NNW 11 NA 29.31 58 49 49 NA 0.00 0.00 0.0 0.00 0
06/03/2020 0200 NA 15 1019.3 41 330° NNW 8 NA 29.32 58 49 52 NA 0.00 0.00 0.0 0.00 0
06/03/2020 0100 NA 15 1019.3 42 350° N 9 NA 29.32 60 51 51 NA 0.00 0.00 0.0 0.00 0
06/02/2020 2400 25000 15 1018.8 42 310° NW 13 500 29.31 61 51 48 10 0.00 0.00 0.0 0.00 0
06/02/2020 2300 25000 15 1018.8 41 310° NW 18 1000 29.30 63 52 45 10 0.00 0.00 0.0 0.00 0
06/02/2020 2200 25000 15 1018.4 41 310° NW 20 1000 29.29 63 52 44 9 0.00 0.00 0.0 0.00 0
06/02/2020 2100 UNL 15 1017.6 41 310° NW 20 500 29.27 66 53 39 9 0.00 0.00 0.0 0.00 0
06/02/2020 2000 25000 15 1016.6 40 310° NW 21 500 29.24 67 23 36 10 0.00 0.00 0.0 0.03 0
06/02/2020 1900 25000 15 1015.3 38 310° NW 23 1000 29.21 73 54 27 10 0.00 0.00 0.0 0.09 61.9
06/02/2020 1800 12000 15 1015.0 36 290° WNW 15 1500 29.20 82 57 18 10 0.00 0.00 0.0 0.20 66.6
06/02/2020 1700 25000 15 1015.0 33 240° WSW 14 1500 29.19 83 57 16 10 0.00 0.00 0.0 0.47 68.4
06/02/2020 1600 25000 15 1015.0 30 230° SW 13 1500 29.20 83 56 14 10 0.00 0.00 0.0 0.60 70
06/02/2020 1500 25000 15 1015.5 29 220° SW 11 1500 29.21 83 56 14 10 0.00 0.00 0.0 1.04 72.7
06/02/2020 1400 25000 15 1015.6 28 240° WSW 9 1500 29.22 81 55 14 10 0.00 0.00 0.0 0.82 68.5
06/02/2020 1300 25000 15 1016.3 31 170° S 4 1300 29.24 78 54 18 10 0.00 0.00 0.0 0.55 67.8
06/02/2020 1200 25000 15 1017.4 31 170° S 6 1200 29.26 78 55 18 10 0.00 0.00 0.0 1.06 71.7
06/02/2020 1100 25000 15 1018.2 32 180° S 7 1200 29.29 76 54 20 10 0.00 0.00 0.0 1.13 70.2
06/02/2020 1000 25000 15 1018.9 34 210° SSW 6 1000 29.31 73 53 23 10 0.00 0.00 0.0 1.09 70.7
06/02/2020 0900 25000 15 1020.2 34 240° WSW 4 1000 29.35 70 52 26 9 0.00 0.00 0.0 0.93 67.3
06/02/2020 0800 UNL 15 1020.8 33 260° W 3 1000 29.36 65 50 30 9 0.00 0.00 0.0 0.67 66.4
06/02/2020 0700 UNL 15 1020.9 36 340° NNW 5 800 29.37 62 49 37 7 0.00 0.00 0.0 0.43 56.8
06/02/2020 0600 UNL 15 1020.9 35 320° NW 5 600 29.37 58 47 42 8 0.00 0.00 0.0 0.24 53.8
NA = information not available due to unmanned weather station
*= This weather occurred at observation time or during the hour
** WBGT is the Web Bulb Global Temperature Outside observed at HMS (0=unavailable)
NA = information not available due to unmanned weather station
*= This weather occurred at observation time or during the hour
** WBGT is the Web Bulb Global Temperature Outside observed at HMS (0=unavailable)